ADDS METAR Data INFO
IDs: Format: Raw Decoded Include TAF

Data at: 0404 UTC 11 Dec 2017

KRVS 110353Z 00000KT 10SM CLR 03/M04 A3023 RMK AO2 SLP241 LAST T00331044
KRVS 110253Z 00000KT 10SM CLR 03/M04 A3022 RMK AO2 SLP242 T00281039 51001
KRVS 110153Z 00000KT 10SM CLR 04/M04 A3022 RMK AO2 SLP243 T00441039
KRVS 110053Z 00000KT 10SM CLR 07/M04 A3022 RMK AO2 SLP243 T00721044
KRVS 102353Z 26003KT 10SM CLR 09/M05 A3022 RMK AO2 SLP241 T00941050 10183 20094 51006
KRVS 102253Z 00000KT 10SM CLR 16/M07 A3022 RMK AO2 SLP239 T01611072
KRVS 102153Z 30006KT 10SM CLR 18/M08 A3021 RMK AO2 SLP237 T01781078
KRVS 102053Z VRB04KT 10SM CLR 18/M08 A3020 RMK AO2 SLP234 T01831078 56016
KRVS 101953Z 30009G15KT 10SM CLR 18/M07 A3021 RMK AO2 SLP236 T01781072
KRVS 101853Z VRB03KT 10SM CLR 17/M07 A3022 RMK AO2 SLP239 T01671067
KRVS 101753Z VRB05KT 10SM CLR 14/M07 A3025 RMK AO2 SLP250 T01441067 10144 21050 58005
KRVS 101653Z VRB04KT 10SM CLR 12/M07 A3027 RMK AO2 SLP257 T01171067
KRVS 101553Z VRB03KT 10SM CLR 09/M07 A3027 RMK AO2 SLP259 T00941067
KRVS 101453Z 17003KT 10SM CLR 05/M04 A3026 RMK AO2 SLP257 T00501039 53004
KRVS 101353Z 23003KT 10SM CLR 01/M05 A3026 RMK AO2 SLP256 T00061050
KRVS 101253Z 00000KT 10SM CLR M04/M06 A3025 RMK AO2 SLP252 T10441061
KRVS 101153Z AUTO 00000KT 10SM CLR M04/M06 A3025 RMK AO2 SLP252 T10441061 11017 21044 56010
KRVS 101053Z AUTO 00000KT 10SM CLR M04/M06 A3026 RMK AO2 SLP253 T10391061
KRVS 100953Z AUTO 00000KT 10SM CLR M04/M06 A3027 RMK AO2 SLP259 T10391061
KRVS 100853Z AUTO 22003KT 10SM CLR M03/M06 A3028 RMK AO2 SLP262 T10281056 56004
KRVS 100753Z AUTO 00000KT 10SM CLR M02/M05 A3028 RMK AO2 SLP263 T10221050
KRVS 100653Z AUTO 00000KT 10SM CLR M03/M06 A3029 RMK AO2 SLP263 T10281056
KRVS 100553Z AUTO 00000KT 10SM CLR M03/M05 A3029 RMK AO2 SLP267 T10281050 10078 21028 401281050 50002
KRVS 100453Z AUTO 22003KT 10SM CLR M01/M04 A3031 RMK AO2 SLP271 T10061044
KRVS 100353Z 00000KT 10SM CLR M01/M04 A3031 RMK AO2 SLP272 LAST T10061044
KRVS 100253Z 00000KT 10SM CLR 00/M04 A3029 RMK AO2 SLP266 T00001044 51011
KRVS 100153Z 00000KT 10SM CLR 02/M04 A3028 RMK AO2 SLP263 T00171044
KRVS 100053Z 00000KT 10SM CLR 04/M05 A3027 RMK AO2 SLP259 T00441050
KRVS 092353Z 32003KT 10SM CLR 08/M06 A3026 RMK AO2 SLP254 T00831056 10128 20083 53014
KRVS 092253Z VRB06KT 10SM CLR 11/M06 A3024 RMK AO2 SLP246 T01111061
KRVS 092153Z 31006KT 10SM CLR 13/M06 A3022 RMK AO2 SLP241 T01281061
KRVS 092053Z 31009G16KT 10SM CLR 12/M06 A3022 RMK AO2 SLP239 T01221056 55004
KRVS 091953Z 30007G16KT 260V350 10SM CLR 12/M05 A3020 RMK AO2 SLP235 T01221050
KRVS 091853Z 34009G17KT 10SM CLR 11/M04 A3021 RMK AO2 SLP237 T01111044
KRVS 091753Z 33006KT 10SM CLR 09/M03 A3023 RMK AO2 SLP244 T00941033 10100 21022 50007
KRVS 091653Z VRB05KT 10SM CLR 08/M03 A3024 RMK AO2 SLP249 T00781033